createdAt,value
2019-02-02T00:01:28.274Z,99366.75
2019-02-02T00:03:56.056Z,99362.71
2019-02-02T00:06:23.812Z,99362.81
2019-02-02T00:08:51.563Z,99365.77
2019-02-02T00:11:19.429Z,99367.44
2019-02-02T00:13:47.177Z,99365.54
2019-02-02T00:16:14.896Z,99362.22
2019-02-02T00:18:42.667Z,99371.57
2019-02-02T00:21:10.408Z,99369.62
2019-02-02T00:23:38.160Z,99368.52
2019-02-02T00:26:06.020Z,99374.36
2019-02-02T00:28:33.760Z,99380.19
2019-02-02T00:31:01.495Z,99380.30
2019-02-02T00:33:29.244Z,99383.20
2019-02-02T00:35:57.155Z,99376.91
2019-02-02T00:38:24.860Z,99376.22
2019-02-02T00:40:52.618Z,99377.56
2019-02-02T00:43:20.412Z,99378.55
2019-02-02T00:45:48.204Z,99374.11
2019-02-02T00:48:15.960Z,99378.36
2019-02-02T00:50:43.817Z,99380.52
2019-02-02T00:53:11.768Z,99388.51
2019-02-02T00:55:39.514Z,99401.63
2019-02-02T00:58:07.294Z,99400.33
2019-02-02T01:00:35.046Z,99382.95
2019-02-02T01:03:02.863Z,99384.94
2019-02-02T01:05:30.617Z,99393.30
2019-02-02T01:07:58.433Z,99391.87
2019-02-02T01:10:27.484Z,99383.97
2019-02-02T01:12:55.240Z,99361.63
2019-02-02T01:15:23.076Z,99385.17
2019-02-02T01:17:50.916Z,99390.57
2019-02-02T01:20:18.684Z,99388.47
2019-02-02T01:22:46.666Z,99393.36
2019-02-02T01:25:14.409Z,99366.51
2019-02-02T01:27:42.166Z,99384.69
2019-02-02T01:30:16.267Z,99337.88
2019-02-02T01:32:44.069Z,99381.55
2019-02-02T01:35:12.408Z,99379.12
2019-02-02T01:37:40.175Z,99376.69
2019-02-02T01:40:09.032Z,99383.03
2019-02-02T01:42:36.800Z,99386.02
2019-02-02T01:45:05.389Z,99364.77
2019-02-02T01:47:33.111Z,99377.13
2019-02-02T01:50:00.839Z,99380.75
2019-02-02T01:52:28.735Z,99384.17
2019-02-02T01:54:56.467Z,99389.95
2019-02-02T01:57:24.485Z,99405.55
2019-02-02T01:59:52.191Z,99404.39
2019-02-02T02:02:19.940Z,99401.21
2019-02-02T02:04:47.677Z,99400.22
2019-02-02T02:07:15.425Z,99399.43
2019-02-02T02:09:43.164Z,99395.80
2019-02-02T02:12:10.981Z,99391.78
2019-02-02T02:14:38.710Z,99397.12
2019-02-02T02:17:06.477Z,99402.23
2019-02-02T02:19:34.538Z,99395.88
2019-02-02T02:22:02.352Z,99392.92
2019-02-02T02:24:30.089Z,99362.41
2019-02-02T02:26:58.157Z,99394.59
2019-02-02T02:29:25.885Z,99393.23
2019-02-02T02:31:55.378Z,99382.86
2019-02-02T02:34:23.433Z,99366.86
2019-02-02T02:36:51.163Z,99367.99
2019-02-02T02:39:18.897Z,99372.54
2019-02-02T02:41:46.632Z,99376.19
2019-02-02T02:44:14.391Z,99337.00
2019-02-02T02:46:42.144Z,99362.42
2019-02-02T02:49:09.892Z,99367.07
2019-02-02T02:51:37.633Z,99363.52
2019-02-02T02:54:05.408Z,99361.73
2019-02-02T02:56:33.188Z,99373.17
2019-02-02T02:59:01.013Z,99373.00
2019-02-02T03:01:28.759Z,99368.09
2019-02-02T03:03:56.493Z,99363.09
2019-02-02T03:06:24.239Z,99370.94
2019-02-02T03:08:51.988Z,99368.33
2019-02-02T03:11:19.733Z,99368.97
2019-02-02T03:13:47.496Z,99369.98
2019-02-02T03:16:15.255Z,99373.14
2019-02-02T03:18:43.088Z,99370.52
2019-02-02T03:21:10.852Z,99375.53
2019-02-02T03:23:38.580Z,99379.16
2019-02-02T03:26:06.321Z,99379.34
2019-02-02T03:28:34.063Z,99384.16
2019-02-02T03:31:02.077Z,99385.41
2019-02-02T03:33:29.889Z,99392.52
2019-02-02T03:35:57.878Z,99388.22
2019-02-02T03:38:25.624Z,99382.16
2019-02-02T03:40:53.356Z,99385.29
2019-02-02T03:43:21.285Z,99378.37
2019-02-02T03:45:49.155Z,99382.70
2019-02-02T03:48:16.895Z,99380.17
2019-02-02T03:50:44.637Z,99371.02
2019-02-02T03:53:12.683Z,99385.83
2019-02-02T03:55:40.471Z,99390.09
2019-02-02T03:58:08.267Z,99397.70
2019-02-02T04:00:36.085Z,99395.42
2019-02-02T04:03:03.826Z,99393.94
2019-02-02T04:05:31.634Z,99393.97
2019-02-02T04:07:59.439Z,99384.31
2019-02-02T04:10:27.181Z,99376.36
2019-02-02T04:12:54.928Z,99386.66
2019-02-02T04:15:22.826Z,99384.36
2019-02-02T04:17:50.827Z,99384.22
2019-02-02T04:20:19.475Z,99354.89
2019-02-02T04:22:47.350Z,99390.59
2019-02-02T04:25:15.212Z,99394.35
2019-02-02T04:27:43.016Z,99408.34
2019-02-02T04:30:12.128Z,99410.61
2019-02-02T04:32:39.855Z,99401.64
2019-02-02T04:35:08.403Z,99396.60
2019-02-02T04:37:38.162Z,99396.48
2019-02-02T04:40:05.661Z,99401.02
2019-02-02T04:42:33.472Z,99401.00
2019-02-02T04:45:01.218Z,99397.69
2019-02-02T04:47:29.081Z,99400.38
2019-02-02T04:49:56.948Z,99400.61
2019-02-02T04:52:24.688Z,99396.03
2019-02-02T04:54:52.433Z,99393.22
2019-02-02T04:57:20.177Z,99391.69
2019-02-02T04:59:47.940Z,99378.38
2019-02-02T05:02:15.668Z,99385.64
2019-02-02T05:04:43.423Z,99369.39
2019-02-02T05:07:11.286Z,99370.24
2019-02-02T05:09:39.077Z,99370.06
2019-02-02T05:12:06.829Z,99366.81
2019-02-02T05:14:34.571Z,99367.13
2019-02-02T05:17:02.476Z,99381.30
2019-02-02T05:19:30.208Z,99383.67
2019-02-02T05:21:57.941Z,99386.08
2019-02-02T05:24:25.687Z,99383.21
2019-02-02T05:26:53.418Z,99392.09
2019-02-02T05:29:21.173Z,99393.05
2019-02-02T05:31:48.961Z,99399.34
2019-02-02T05:34:16.743Z,99401.42
2019-02-02T05:36:44.489Z,99406.09
2019-02-02T05:39:12.221Z,99418.80
2019-02-02T05:41:39.978Z,99411.53
2019-02-02T05:44:07.715Z,99414.80
2019-02-02T05:46:35.446Z,99421.50
2019-02-02T05:49:03.191Z,99423.35
2019-02-02T05:51:30.928Z,99418.16
2019-02-02T05:53:58.684Z,99410.83
2019-02-02T05:56:26.425Z,99423.06
2019-02-02T05:58:54.248Z,99427.44
2019-02-02T06:01:22.049Z,99428.27
2019-02-02T06:03:49.796Z,99424.73
2019-02-02T06:06:17.556Z,99434.28
2019-02-02T06:08:45.279Z,99432.10
2019-02-02T06:11:13.013Z,99428.66
2019-02-02T06:13:40.748Z,99420.81
2019-02-02T06:16:08.477Z,99423.69
2019-02-02T06:18:36.241Z,99435.59
2019-02-02T06:21:03.980Z,99440.92
2019-02-02T06:23:31.800Z,99432.92
2019-02-02T06:25:59.621Z,99436.65
2019-02-02T06:28:27.480Z,99442.80
2019-02-02T06:30:55.201Z,99450.70
2019-02-02T06:33:22.925Z,99449.06
2019-02-02T06:35:50.660Z,99455.59
2019-02-02T06:38:18.493Z,99458.56
2019-02-02T06:40:46.255Z,99461.62
2019-02-02T06:43:14.082Z,99464.80
2019-02-02T06:45:42.094Z,99462.16
2019-02-02T06:48:09.837Z,99473.21
2019-02-02T06:50:37.699Z,99466.58
2019-02-02T06:53:05.760Z,99468.45
2019-02-02T06:55:33.873Z,99479.66
2019-02-02T06:58:01.614Z,99479.02
2019-02-02T07:00:29.340Z,99471.84
2019-02-02T07:02:57.095Z,99462.77
2019-02-02T07:05:24.979Z,99471.91
2019-02-02T07:07:52.717Z,99467.84
2019-02-02T07:10:21.654Z,99466.58
2019-02-02T07:12:49.406Z,99464.61
2019-02-02T07:15:17.530Z,99469.79
2019-02-02T07:17:45.365Z,99471.39
2019-02-02T07:20:13.441Z,99473.52
2019-02-02T07:22:41.250Z,99475.81
2019-02-02T07:25:09.137Z,99482.84
2019-02-02T07:27:36.970Z,99493.86
2019-02-02T07:30:05.648Z,99496.95
2019-02-02T07:32:33.618Z,99496.98
2019-02-02T07:35:01.463Z,99500.44
2019-02-02T07:37:29.193Z,99500.32
2019-02-02T07:39:56.960Z,99490.80
2019-02-02T07:42:24.813Z,99496.66
2019-02-02T07:44:52.564Z,99503.75
2019-02-02T07:47:20.542Z,99513.27
2019-02-02T07:49:48.432Z,99518.02
2019-02-02T07:52:16.160Z,99511.16
2019-02-02T07:54:43.916Z,99515.26
2019-02-02T07:57:11.836Z,99528.08
2019-02-02T07:59:39.590Z,99535.85
2019-02-02T08:02:07.393Z,99535.78
2019-02-02T08:04:35.234Z,99543.52
2019-02-02T08:07:02.964Z,99553.74
2019-02-02T08:09:31.032Z,99554.20
2019-02-02T08:11:58.793Z,99552.73
2019-02-02T08:14:26.514Z,99564.77
2019-02-02T08:16:54.255Z,99563.29
2019-02-02T08:19:22.004Z,99564.95
2019-02-02T08:21:49.923Z,99557.98
2019-02-02T08:24:17.680Z,99568.17
2019-02-02T08:26:45.417Z,99572.98
2019-02-02T08:29:13.159Z,99567.75
2019-02-02T08:31:41.020Z,99560.24
2019-02-02T08:34:08.760Z,99560.39
2019-02-02T08:36:36.487Z,99563.86
2019-02-02T08:39:06.647Z,99567.45
2019-02-02T08:41:34.385Z,99556.55
2019-02-02T08:44:02.241Z,99557.25
2019-02-02T08:46:30.085Z,99562.98
2019-02-02T08:48:57.925Z,99559.41
2019-02-02T08:51:25.684Z,99567.54
2019-02-02T08:53:53.574Z,99560.09
2019-02-02T08:56:21.308Z,99555.24
2019-02-02T08:58:49.048Z,99556.45
2019-02-02T09:01:16.768Z,99562.36
2019-02-02T09:03:44.749Z,99567.55
2019-02-02T09:06:12.536Z,99568.39
2019-02-02T09:08:40.281Z,99571.79
2019-02-02T09:11:08.029Z,99569.95
2019-02-02T09:13:36.864Z,99565.59
2019-02-02T09:16:04.935Z,99574.30
2019-02-02T09:18:32.781Z,99572.80
2019-02-02T09:21:00.634Z,99582.67
2019-02-02T09:23:28.517Z,99592.13
2019-02-02T09:25:56.403Z,99600.80
2019-02-02T09:28:24.145Z,99589.10
2019-02-02T09:30:51.909Z,99590.96
2019-02-02T09:33:20.256Z,99601.73
2019-02-02T09:35:47.973Z,99612.52
2019-02-02T09:38:16.216Z,99615.61
2019-02-02T09:40:43.957Z,99619.30
2019-02-02T09:43:11.800Z,99620.95
2019-02-02T09:45:39.579Z,99615.96
2019-02-02T09:48:07.357Z,99624.64
2019-02-02T09:50:35.501Z,99627.41
2019-02-02T09:53:03.256Z,99620.49
2019-02-02T09:55:31.158Z,99622.24
2019-02-02T09:58:00.437Z,99627.67
2019-02-02T10:00:28.930Z,99627.77
2019-02-02T10:02:56.726Z,99626.92
2019-02-02T10:05:24.755Z,99635.64
2019-02-02T10:07:52.499Z,99627.09
2019-02-02T10:10:21.187Z,99628.59
2019-02-02T10:12:49.212Z,99641.98
2019-02-02T10:15:17.244Z,99655.01
2019-02-02T10:17:45.169Z,99658.19
2019-02-02T10:20:14.007Z,99669.52
2019-02-02T10:22:41.761Z,99668.63
2019-02-02T10:25:10.068Z,99663.19
2019-02-02T10:27:37.817Z,99659.07
2019-02-02T10:30:06.305Z,99667.61
2019-02-02T10:32:34.271Z,99663.20
2019-02-02T10:35:02.002Z,99656.36
2019-02-02T10:37:29.853Z,99658.08
2019-02-02T10:39:57.659Z,99657.28
2019-02-02T10:42:25.431Z,99657.45
2019-02-02T10:44:53.163Z,99659.77
2019-02-02T10:47:20.967Z,99656.25
2019-02-02T10:49:48.989Z,99638.64
2019-02-02T10:52:16.716Z,99658.56
2019-02-02T10:54:44.639Z,99665.58
2019-02-02T10:57:12.389Z,99662.48
2019-02-02T10:59:40.664Z,99662.05
2019-02-02T11:02:08.476Z,99652.77
2019-02-02T11:04:36.220Z,99649.95
2019-02-02T11:07:04.418Z,99624.10
2019-02-02T11:09:32.381Z,99647.70
2019-02-02T11:12:00.330Z,99649.15
2019-02-02T11:14:28.188Z,99646.00
2019-02-02T11:16:55.985Z,99645.83
2019-02-02T11:19:23.843Z,99653.38
2019-02-02T11:21:52.022Z,99658.00
2019-02-02T11:24:19.838Z,99664.20
2019-02-02T11:26:47.808Z,99651.39
2019-02-02T11:29:16.435Z,99657.87
2019-02-02T11:31:44.512Z,99653.73
2019-02-02T11:34:12.459Z,99644.04
2019-02-02T11:36:40.298Z,99643.93
2019-02-02T11:39:08.135Z,99639.40
2019-02-02T11:41:35.967Z,99639.50
2019-02-02T11:44:03.991Z,99641.55
2019-02-02T11:46:32.113Z,99638.11
2019-02-02T11:48:59.922Z,99636.14
2019-02-02T11:51:28.059Z,99619.89
2019-02-02T11:53:55.943Z,99642.34
2019-02-02T11:56:41.189Z,99634.39
2019-02-02T11:59:12.235Z,99630.41
2019-02-02T12:01:39.991Z,99633.55
2019-02-02T12:04:07.799Z,99421.70
2019-02-02T12:06:35.635Z,99657.23
2019-02-02T12:09:04.498Z,99653.72
2019-02-02T12:11:32.255Z,99657.58
2019-02-02T12:13:59.956Z,99667.47
2019-02-02T12:16:27.732Z,99671.39
2019-02-02T12:18:55.571Z,99672.37
2019-02-02T12:21:23.352Z,99664.89
2019-02-02T12:23:51.102Z,99665.99
2019-02-02T12:26:19.830Z,99662.09
2019-02-02T12:28:49.558Z,99659.20
2019-02-02T12:31:18.070Z,99664.77
2019-02-02T12:33:48.082Z,99668.52
2019-02-02T12:36:16.919Z,99677.23
2019-02-02T12:38:44.644Z,99678.00
2019-02-02T12:41:12.402Z,99681.31
2019-02-02T12:43:40.127Z,99684.39
2019-02-02T12:46:08.123Z,99679.91
2019-02-02T12:48:35.836Z,99679.31
2019-02-02T12:51:06.347Z,99648.38
2019-02-02T12:53:34.546Z,99677.88
2019-02-02T12:56:05.599Z,99676.50
2019-02-02T12:58:33.376Z,99631.87
2019-02-02T13:01:01.210Z,99680.64
2019-02-02T13:03:30.326Z,99680.73
2019-02-02T13:06:00.054Z,99684.29
2019-02-02T13:08:35.127Z,99681.66
2019-02-02T13:11:02.842Z,99692.12
2019-02-02T13:13:30.721Z,99685.77
2019-02-02T13:15:58.487Z,99690.02
2019-02-02T13:18:26.355Z,99693.08
2019-02-02T13:20:54.243Z,99700.12
2019-02-02T13:23:22.408Z,99698.22
2019-02-02T13:25:50.141Z,99704.98
2019-02-02T13:28:18.007Z,99669.54
2019-02-02T13:30:45.895Z,99702.92
2019-02-02T13:33:13.660Z,99697.13
2019-02-02T13:35:42.493Z,99675.84
2019-02-02T13:38:10.262Z,99668.23
2019-02-02T13:40:38.535Z,99704.48
2019-02-02T13:43:06.361Z,99697.91
2019-02-02T13:45:34.111Z,99716.10
2019-02-02T13:48:01.852Z,99716.01
2019-02-02T13:50:29.784Z,99725.94
2019-02-02T13:52:57.624Z,99720.83
2019-02-02T13:55:25.388Z,99721.32
2019-02-02T13:57:53.160Z,99720.25
2019-02-02T14:00:22.119Z,99719.08
2019-02-02T14:03:01.531Z,99717.54
2019-02-02T14:05:19.619Z,99721.05
2019-02-02T14:07:47.451Z,99728.28
2019-02-02T14:10:16.382Z,99728.16
2019-02-02T14:12:44.248Z,99735.41
2019-02-02T14:15:11.981Z,99746.95
2019-02-02T14:17:39.748Z,99752.30
2019-02-02T14:20:07.979Z,99760.25
2019-02-02T14:22:37.564Z,99757.05
2019-02-02T14:25:05.912Z,99764.22
2019-02-02T14:27:33.640Z,99773.31
2019-02-02T14:30:01.400Z,99779.42
2019-02-02T14:32:29.152Z,99777.35
2019-02-02T14:34:57.029Z,99776.16
2019-02-02T14:43:22.231Z,99789.71
2019-02-02T14:45:49.938Z,99795.16
2019-02-02T14:48:17.684Z,99794.33
2019-02-02T14:50:45.392Z,99803.66
2019-02-02T14:53:13.106Z,99799.75
2019-02-02T14:55:46.593Z,99778.34
2019-02-02T14:58:14.417Z,99809.33
2019-02-02T15:00:44.792Z,99807.16
2019-02-02T15:03:25.726Z,99726.42
2019-02-02T15:06:01.750Z,99814.94
2019-02-02T15:08:32.440Z,99815.32
2019-02-02T15:11:00.269Z,99819.13
2019-02-02T15:13:28.227Z,99820.50
2019-02-02T15:15:56.098Z,99818.91
2019-02-02T15:18:23.876Z,99821.27
2019-02-02T15:20:51.636Z,99811.05
2019-02-02T15:23:19.476Z,99841.80
2019-02-02T15:27:10.278Z,99837.62
2019-02-02T15:29:19.938Z,99848.97
2019-02-02T15:32:43.441Z,99641.91
2019-02-02T15:36:31.371Z,99851.05
2019-02-02T15:38:38.347Z,99844.52
2019-02-02T15:41:30.618Z,99846.53
2019-02-02T15:44:04.445Z,99844.38
2019-02-02T15:47:02.913Z,99852.24
2019-02-02T15:49:32.863Z,99855.37
2019-02-02T15:52:16.369Z,99856.22
2019-02-02T16:01:42.970Z,99862.49
2019-02-02T16:04:19.664Z,99860.34
2019-02-02T16:07:32.496Z,99866.52
2019-02-02T16:09:57.762Z,99871.20
2019-02-02T16:12:25.583Z,99877.99
2019-02-02T16:14:55.362Z,99888.19
2019-02-02T16:17:37.333Z,99886.73
2019-02-02T16:20:05.292Z,99895.89
2019-02-02T16:22:33.068Z,99884.69
2019-02-02T16:25:00.816Z,99895.11
2019-02-02T16:27:28.567Z,99891.28
2019-02-02T16:29:56.313Z,99895.84
2019-02-02T16:32:24.161Z,99906.09
2019-02-02T16:34:51.900Z,99904.38
2019-02-02T16:37:19.639Z,99912.91
2019-02-02T16:39:47.391Z,99922.19
2019-02-02T16:42:15.560Z,99931.30
2019-02-02T16:44:43.303Z,99933.83
2019-02-02T16:47:11.062Z,99935.65
2019-02-02T16:49:39.699Z,99925.88
2019-02-02T16:52:07.537Z,99936.86
2019-02-02T16:54:35.279Z,99941.43
2019-02-02T16:57:03.020Z,99947.34
2019-02-02T16:59:30.819Z,99946.59
2019-02-02T17:01:58.713Z,99956.81
2019-02-02T17:04:26.451Z,99961.88
2019-02-02T17:06:54.215Z,99963.68
2019-02-02T17:09:22.111Z,99965.96
2019-02-02T17:11:49.944Z,99963.87
2019-02-02T17:14:18.054Z,99967.27
2019-02-02T17:16:46.112Z,99970.71
2019-02-02T17:19:13.920Z,99973.12
2019-02-02T17:21:41.844Z,99982.34
2019-02-02T17:24:09.653Z,99981.20
2019-02-02T17:26:37.539Z,99986.60
2019-02-02T17:29:05.301Z,99984.62
2019-02-02T17:31:33.101Z,99988.31
2019-02-02T17:34:00.859Z,99993.82
2019-02-02T17:36:28.669Z,99992.23
2019-02-02T17:38:56.576Z,99994.28
2019-02-02T17:41:24.320Z,99990.89
2019-02-02T17:43:52.070Z,99997.13
2019-02-02T17:46:19.880Z,100006.59
2019-02-02T17:48:47.701Z,100010.43
2019-02-02T17:51:16.649Z,100011.46
2019-02-02T17:53:44.745Z,100013.00
2019-02-02T17:56:13.633Z,100024.19
2019-02-02T17:58:41.412Z,100019.23
2019-02-02T18:01:09.142Z,100028.09
2019-02-02T18:03:36.877Z,100024.70
2019-02-02T18:06:04.690Z,100023.46
2019-02-02T18:08:32.496Z,100030.93
2019-02-02T18:11:00.363Z,100027.88
2019-02-02T18:13:28.113Z,100033.95
2019-02-02T18:15:55.868Z,100041.16
2019-02-02T18:18:23.638Z,100041.77
2019-02-02T18:20:51.372Z,100049.59
2019-02-02T18:23:19.134Z,100052.61
2019-02-02T18:25:46.912Z,100040.78
2019-02-02T18:28:14.668Z,100058.46
2019-02-02T18:30:42.594Z,100067.08
2019-02-02T18:33:10.343Z,100071.91
2019-02-02T18:35:38.089Z,100075.04
2019-02-02T18:38:06.000Z,100073.70
2019-02-02T18:40:33.876Z,100083.86
2019-02-02T18:43:01.605Z,100095.09
2019-02-02T18:45:29.351Z,100103.56
2019-02-02T18:47:57.126Z,100103.56
2019-02-02T18:50:24.875Z,100107.15
2019-02-02T18:52:52.940Z,100116.94
2019-02-02T18:55:25.006Z,100119.02
2019-02-02T18:57:52.783Z,100122.02
2019-02-02T19:00:20.606Z,100129.79
2019-02-02T19:02:48.346Z,100130.84
2019-02-02T19:05:16.116Z,100138.81
2019-02-02T19:07:43.991Z,100146.70
2019-02-02T19:10:13.152Z,100144.87
2019-02-02T19:12:41.087Z,100154.14
2019-02-02T19:15:09.112Z,100151.58
2019-02-02T19:17:36.871Z,100160.12
2019-02-02T19:20:05.519Z,100154.19
2019-02-02T19:22:33.457Z,100159.56
2019-02-02T19:25:01.196Z,100161.24
2019-02-02T19:27:28.927Z,100161.05
2019-02-02T19:29:56.708Z,100165.89
2019-02-02T19:32:24.492Z,100166.75
2019-02-02T19:34:52.334Z,100160.45
2019-02-02T19:37:21.156Z,100156.16
2019-02-02T19:39:49.045Z,100155.36
2019-02-02T19:42:25.220Z,100166.31
2019-02-02T19:44:52.984Z,100180.61
2019-02-02T19:47:20.717Z,100180.18
2019-02-02T19:49:48.525Z,100182.77
2019-02-02T19:52:16.250Z,100154.23
2019-02-02T19:54:44.113Z,100189.03
2019-02-02T19:57:11.960Z,100181.78
2019-02-02T19:59:39.715Z,100173.39
2019-02-02T20:02:07.468Z,100167.89
2019-02-02T20:04:35.207Z,100167.98
2019-02-02T20:07:02.982Z,100168.09
2019-02-02T20:09:30.763Z,100168.95
2019-02-02T20:11:58.758Z,100177.73
2019-02-02T20:14:26.507Z,100181.52
2019-02-02T20:16:54.250Z,100162.89
2019-02-02T20:19:22.049Z,100200.09
2019-02-02T20:21:49.903Z,100207.88
2019-02-02T20:24:17.819Z,100209.58
2019-02-02T20:26:45.710Z,100222.11
2019-02-02T20:29:13.456Z,100227.57
2019-02-02T20:31:41.248Z,100231.65
2019-02-02T20:34:08.986Z,100231.56
2019-02-02T20:36:36.749Z,100245.98
2019-02-02T20:39:06.405Z,100241.41
2019-02-02T20:41:34.161Z,100242.44
2019-02-02T20:44:03.566Z,100242.12
2019-02-02T20:46:31.436Z,100242.38
2019-02-02T20:48:59.215Z,100246.95
2019-02-02T20:51:27.033Z,100241.14
2019-02-02T20:53:54.797Z,100264.08
2019-02-02T20:56:23.550Z,100258.62
2019-02-02T20:58:51.513Z,100260.78
2019-02-02T21:01:19.326Z,100232.55
2019-02-02T21:03:47.149Z,100269.16
2019-02-02T21:06:14.998Z,100271.34
2019-02-02T21:08:42.862Z,100274.84
2019-02-02T21:11:10.912Z,100279.72
2019-02-02T21:13:38.765Z,100282.38
2019-02-02T21:16:06.537Z,100285.22
2019-02-02T21:18:34.380Z,100295.19
2019-02-02T21:21:02.593Z,100299.94
2019-02-02T21:23:30.397Z,100312.80
2019-02-02T21:25:58.152Z,100309.00
2019-02-02T21:28:26.015Z,100321.70
2019-02-02T21:30:53.858Z,100323.27
2019-02-02T21:33:21.826Z,100325.84
2019-02-02T21:35:49.687Z,100322.33
2019-02-02T21:38:17.590Z,100325.58
2019-02-02T21:40:45.410Z,100323.11
2019-02-02T21:43:13.231Z,100331.42
2019-02-02T21:45:41.170Z,100340.46
2019-02-02T21:48:09.016Z,100339.75
2019-02-02T21:50:36.828Z,100343.52
2019-02-02T21:53:04.669Z,100341.89
2019-02-02T21:55:32.439Z,100346.25
2019-02-02T21:58:00.276Z,100327.18
2019-02-02T22:00:29.140Z,100350.48
2019-02-02T22:02:56.957Z,100359.47
2019-02-02T22:05:24.801Z,100362.28
2019-02-02T22:07:52.625Z,100360.38
2019-02-02T22:10:20.601Z,100367.74
2019-02-02T22:12:48.464Z,100368.75
2019-02-02T22:15:17.652Z,100373.98
2019-02-02T22:17:45.525Z,100382.13
2019-02-02T22:20:13.303Z,100378.41
2019-02-02T22:22:41.150Z,100381.64
2019-02-02T22:25:10.574Z,100391.89
2019-02-02T22:27:38.535Z,100398.83
2019-02-02T22:30:07.414Z,100395.84
2019-02-02T22:32:35.261Z,100397.41
2019-02-02T22:35:03.347Z,100403.39
2019-02-02T22:37:31.165Z,100417.73
2019-02-02T22:39:58.951Z,100422.99
2019-02-02T22:42:27.133Z,100429.23
2019-02-02T22:44:55.005Z,100438.17
2019-02-02T22:47:22.882Z,100444.59
2019-02-02T22:49:50.997Z,100452.12
2019-02-02T22:52:18.809Z,100458.28
2019-02-02T22:54:46.587Z,100463.80
2019-02-02T22:57:16.080Z,100471.97
2019-02-02T22:59:43.945Z,100477.76
2019-02-02T23:02:16.282Z,100475.30
2019-02-02T23:04:48.928Z,100475.92
2019-02-02T23:07:30.597Z,100478.64
2019-02-02T23:10:08.221Z,100468.36
2019-02-02T23:12:57.824Z,100480.72
2019-02-02T23:15:34.593Z,100478.03
2019-02-02T23:18:02.600Z,100484.97
2019-02-02T23:20:30.677Z,100492.90
2019-02-02T23:22:58.530Z,100492.45
2019-02-02T23:25:26.615Z,100494.84
2019-02-02T23:27:54.445Z,100496.58
2019-02-02T23:30:22.328Z,100505.45
2019-02-02T23:32:50.176Z,100502.78
2019-02-02T23:35:18.324Z,100510.27
2019-02-02T23:37:46.186Z,100516.89
2019-02-02T23:40:14.085Z,100502.53
2019-02-02T23:42:42.069Z,100511.68
2019-02-02T23:45:09.957Z,100510.18
2019-02-02T23:47:38.026Z,100512.88
2019-02-02T23:50:06.157Z,100526.23
2019-02-02T23:52:34.299Z,100534.27
2019-02-02T23:55:02.394Z,100539.64
2019-02-02T23:57:30.416Z,100545.64
2019-02-02T23:59:58.242Z,100556.92
